Time;durP1;ratioP1;P1;durP2;ratioP2;P2;SDS_P1;SDS_P2;PMS_P1;PMS_P2;Temp;Humidity;BMP_temperature;BMP_pressure;BME280_temperature;BME280_humidity;BME280_pressure;Samples;Min_cycle;Max_cycle;Signal;HPM_P1;HPM_P2
2022/10/26 00:00:18;;;;;;;5.10;2.37;;;13.20;99.90;;;;;;10439527;28;20889;-77
2022/10/26 00:05:20;;;;;;;7.63;2.73;;;13.30;99.90;;;;;;10395845;28;20183;-74
2022/10/26 00:10:21;;;;;;;7.27;2.93;;;13.30;99.90;;;;;;10407658;28;20201;-74
2022/10/26 00:15:22;;;;;;;4.17;2.50;;;13.30;99.90;;;;;;10396977;28;20201;-72
2022/10/26 00:20:22;;;;;;;5.73;2.60;;;13.30;99.90;;;;;;10411809;28;20212;-73
2022/10/26 00:25:23;;;;;;;5.73;2.50;;;13.30;99.90;;;;;;10437914;28;20188;-74
2022/10/26 00:30:24;;;;;;;8.03;2.70;;;13.30;99.90;;;;;;10397316;28;20382;-74
2022/10/26 00:35:24;;;;;;;6.40;2.60;;;13.30;99.90;;;;;;10406013;28;20231;-74
2022/10/26 00:40:31;;;;;;;4.40;2.50;;;13.30;99.90;;;;;;10402024;28;20742;-74
2022/10/26 00:45:31;;;;;;;5.83;2.37;;;13.30;99.90;;;;;;10434000;28;20223;-74
2022/10/26 00:50:35;;;;;;;7.33;2.80;;;13.30;99.90;;;;;;10444459;28;20223;-73
2022/10/26 00:55:39;;;;;;;7.57;2.60;;;13.30;99.90;;;;;;10400602;28;20290;-74
2022/10/26 01:00:41;;;;;;;5.20;2.63;;;13.30;99.90;;;;;;10399229;28;20232;-75
2022/10/26 01:05:43;;;;;;;9.10;2.87;;;13.30;99.90;;;;;;10399369;28;20267;-75
2022/10/26 01:10:44;;;;;;;4.90;2.20;;;13.20;99.90;;;;;;10406280;28;20315;-75
2022/10/26 01:16:02;;;;;;;3.90;2.20;;;13.20;99.90;;;;;;10435195;28;20686;-77
2022/10/26 01:21:30;;;;;;;5.83;2.60;;;13.20;99.90;;;;;;10400057;28;20262;-76
2022/10/26 01:26:56;;;;;;;10.30;2.83;;;13.20;99.90;;;;;;10399835;28;20257;-77
2022/10/26 01:32:07;;;;;;;9.10;2.80;;;13.20;99.90;;;;;;10397207;28;20216;-74
2022/10/26 01:37:17;;;;;;;8.90;2.90;;;13.20;99.90;;;;;;10395966;28;20220;-77
2022/10/26 01:42:22;;;;;;;11.20;3.07;;;13.20;99.90;;;;;;10406676;28;20243;-73
2022/10/26 01:47:23;;;;;;;8.37;2.70;;;13.20;99.90;;;;;;10398784;28;20224;-75
2022/10/26 01:52:24;;;;;;;6.87;3.03;;;13.20;99.90;;;;;;10405769;28;20223;-74
2022/10/26 01:57:25;;;;;;;7.00;2.80;;;13.20;99.90;;;;;;10403386;28;20220;-74
2022/10/26 02:02:42;;;;;;;7.30;2.80;;;13.20;99.90;;;;;;10417581;28;20219;-74
2022/10/26 02:07:52;;;;;;;5.93;2.73;;;13.20;99.90;;;;;;10444242;28;20233;-74
2022/10/26 02:13:06;;;;;;;12.17;2.87;;;13.20;99.90;;;;;;10436529;28;20328;-75
2022/10/26 02:18:33;;;;;;;9.23;3.00;;;13.20;99.90;;;;;;10414896;28;20640;-77
2022/10/26 02:23:37;;;;;;;6.30;2.53;;;13.30;99.90;;;;;;10413540;28;20239;-74
2022/10/26 02:28:42;;;;;;;4.67;2.73;;;13.20;99.90;;;;;;10393381;28;20642;-76
2022/10/26 02:33:47;;;;;;;7.63;2.73;;;13.20;99.90;;;;;;10402241;28;20726;-76
2022/10/26 02:38:50;;;;;;;8.20;3.90;;;13.20;99.90;;;;;;10404190;28;20232;-74
2022/10/26 02:44:03;;;;;;;5.40;2.70;;;13.30;99.90;;;;;;10412016;28;20219;-74
2022/10/26 02:49:06;;;;;;;5.53;2.70;;;13.30;99.90;;;;;;10404632;28;20307;-74
2022/10/26 02:54:28;;;;;;;5.80;3.10;;;13.30;99.90;;;;;;10411677;28;20224;-74
2022/10/26 02:59:34;;;;;;;7.73;3.23;;;13.30;99.90;;;;;;10400740;28;20310;-73
2022/10/26 03:04:35;;;;;;;8.17;3.50;;;13.30;99.90;;;;;;10405094;28;20579;-74
2022/10/26 03:09:35;;;;;;;11.23;3.30;;;13.30;99.90;;;;;;10440751;28;20220;-74
2022/10/26 03:14:36;;;;;;;7.33;3.13;;;13.30;99.90;;;;;;10413697;28;20242;-73
2022/10/26 03:19:36;;;;;;;6.63;3.10;;;13.20;99.90;;;;;;10396613;28;20220;-73
2022/10/26 03:24:37;;;;;;;10.37;2.77;;;13.20;99.90;;;;;;10409600;28;20586;-73
2022/10/26 03:29:37;;;;;;;5.03;3.03;;;13.30;99.90;;;;;;10407791;28;20228;-73
2022/10/26 03:34:38;;;;;;;8.90;2.90;;;13.30;99.90;;;;;;10400248;28;20234;-73
2022/10/26 03:39:38;;;;;;;4.33;2.60;;;13.30;99.90;;;;;;10405438;28;20221;-73
2022/10/26 03:44:39;;;;;;;5.77;3.43;;;13.30;99.90;;;;;;10428768;28;20758;-76
2022/10/26 03:49:40;;;;;;;5.03;2.70;;;13.40;99.90;;;;;;10407920;28;20240;-77
2022/10/26 03:54:40;;;;;;;9.23;2.80;;;13.30;99.90;;;;;;10402430;28;20239;-75
2022/10/26 03:59:41;;;;;;;5.43;2.47;;;13.30;99.90;;;;;;10395015;28;20648;-74
2022/10/26 04:04:41;;;;;;;11.23;3.40;;;13.20;99.90;;;;;;10407985;28;20355;-75
2022/10/26 04:09:42;;;;;;;6.63;3.30;;;13.10;99.90;;;;;;10403719;28;20300;-75
2022/10/26 04:14:42;;;;;;;5.73;2.87;;;13.10;99.90;;;;;;10410192;28;20232;-74
2022/10/26 04:19:43;;;;;;;13.43;4.20;;;13.00;99.90;;;;;;10441777;28;20609;-74
2022/10/26 04:24:44;;;;;;;8.40;3.30;;;12.90;99.90;;;;;;10397922;28;20343;-81
2022/10/26 04:29:44;;;;;;;8.30;3.53;;;12.80;99.90;;;;;;10407604;28;20322;-73
2022/10/26 04:34:46;;;;;;;3.77;3.03;;;12.70;99.90;;;;;;10439801;28;20230;-73
2022/10/26 04:39:46;;;;;;;8.07;3.20;;;12.70;99.90;;;;;;10393212;28;20328;-73
2022/10/26 04:44:47;;;;;;;11.00;3.67;;;12.70;99.90;;;;;;10431260;28;20346;-71
2022/10/26 04:49:47;;;;;;;7.67;3.13;;;12.70;99.90;;;;;;10429810;28;20223;-71
2022/10/26 04:54:48;;;;;;;7.47;3.90;;;12.50;99.90;;;;;;10404793;28;20247;-72
2022/10/26 04:59:49;;;;;;;8.60;3.63;;;12.40;99.90;;;;;;10440065;28;20774;-72
2022/10/26 05:04:49;;;;;;;5.90;3.17;;;12.40;99.90;;;;;;10434012;28;20838;-77
2022/10/26 05:09:50;;;;;;;5.83;3.83;;;12.20;99.90;;;;;;10427904;28;20235;-75
2022/10/26 05:14:51;;;;;;;6.53;3.87;;;12.20;99.90;;;;;;10441129;28;20239;-74
2022/10/26 05:19:54;;;;;;;7.77;3.43;;;12.20;99.90;;;;;;10442320;28;20609;-75
2022/10/26 05:24:55;;;;;;;6.67;3.60;;;12.20;99.90;;;;;;10436540;28;20251;-76
2022/10/26 05:29:55;;;;;;;5.00;3.30;;;12.20;99.90;;;;;;10443219;28;20243;-77
2022/10/26 05:34:56;;;;;;;8.17;3.80;;;12.30;99.90;;;;;;10436736;28;20223;-74
2022/10/26 05:39:56;;;;;;;7.47;3.80;;;12.40;99.90;;;;;;10435680;28;20223;-75
2022/10/26 05:45:00;;;;;;;5.77;3.40;;;12.40;99.90;;;;;;10427823;28;20230;-73
2022/10/26 05:50:00;;;;;;;8.33;3.70;;;12.50;99.90;;;;;;10434741;28;20748;-75
2022/10/26 05:55:01;;;;;;;6.90;3.10;;;12.50;99.90;;;;;;10427073;28;20321;-74
2022/10/26 06:00:09;;;;;;;5.17;3.20;;;12.60;99.90;;;;;;10429770;28;20951;-75
2022/10/26 06:05:21;;;;;;;7.77;4.33;;;12.60;99.90;;;;;;10430241;28;20233;-75
2022/10/26 06:10:22;;;;;;;5.90;3.50;;;12.70;99.90;;;;;;10388530;28;20211;-75
2022/10/26 06:15:23;;;;;;;8.67;3.50;;;12.70;99.90;;;;;;10392795;28;20199;-73
2022/10/26 06:20:36;;;;;;;11.40;4.43;;;12.70;99.90;;;;;;10388521;28;20229;-73
2022/10/26 06:25:47;;;;;;;9.63;3.90;;;12.70;99.90;;;;;;10395741;28;20220;-76
2022/10/26 06:30:47;;;;;;;8.27;3.53;;;12.70;99.90;;;;;;10400965;28;20628;-76
2022/10/26 06:36:00;;;;;;;6.47;3.40;;;12.70;99.90;;;;;;10397415;28;20227;-74
2022/10/26 06:41:02;;;;;;;6.60;3.33;;;12.80;99.90;;;;;;10392337;28;20221;-75
2022/10/26 06:46:28;;;;;;;6.73;4.33;;;12.80;99.90;;;;;;10391998;28;20208;-75
2022/10/26 06:51:30;;;;;;;4.53;3.13;;;12.90;99.90;;;;;;10386901;28;20216;-75
2022/10/26 06:56:31;;;;;;;7.03;3.17;;;12.90;99.90;;;;;;10394347;28;20236;-75
2022/10/26 07:01:32;;;;;;;8.37;4.27;;;13.00;99.90;;;;;;10387623;28;20228;-74
2022/10/26 07:06:32;;;;;;;7.20;3.80;;;13.10;99.90;;;;;;10387504;28;20225;-75
2022/10/26 07:11:33;;;;;;;8.90;3.13;;;13.20;99.90;;;;;;10395344;28;20370;-75
2022/10/26 07:16:36;;;;;;;6.17;3.17;;;13.20;99.90;;;;;;10394553;28;20226;-75
2022/10/26 07:21:37;;;;;;;7.93;3.80;;;13.20;99.90;;;;;;10387264;28;20219;-74
2022/10/26 07:26:38;;;;;;;7.20;3.73;;;13.20;99.90;;;;;;10392302;28;20932;-75
2022/10/26 07:31:38;;;;;;;6.90;3.80;;;13.30;99.90;;;;;;10388833;28;20232;-76
2022/10/26 07:36:39;;;;;;;7.70;3.50;;;13.40;99.90;;;;;;10393468;28;20248;-75
2022/10/26 07:41:41;;;;;;;6.37;4.13;;;13.50;99.90;;;;;;10391883;28;20216;-74
2022/10/26 07:46:42;;;;;;;7.53;3.73;;;13.60;99.90;;;;;;10386975;28;20220;-74
2022/10/26 07:51:42;;;;;;;11.40;5.37;;;13.70;99.90;;;;;;10399547;28;20220;-75
2022/10/26 07:56:43;;;;;;;10.77;4.00;;;13.80;99.90;;;;;;10392311;28;20764;-75
2022/10/26 08:01:44;;;;;;;9.90;4.17;;;13.80;99.90;;;;;;10385032;28;20228;-75
2022/10/26 08:06:46;;;;;;;9.40;3.90;;;13.90;99.90;;;;;;10393265;28;20227;-74
2022/10/26 08:11:46;;;;;;;6.53;3.23;;;14.00;99.90;;;;;;10391116;28;20228;-75
2022/10/26 08:16:51;;;;;;;8.27;4.07;;;14.20;99.90;;;;;;10386584;28;20235;-75
2022/10/26 08:21:51;;;;;;;7.43;4.00;;;14.30;99.90;;;;;;10383217;28;20715;-74
2022/10/26 08:26:52;;;;;;;6.93;4.57;;;14.50;99.90;;;;;;10399456;28;20219;-74
2022/10/26 08:31:52;;;;;;;6.87;3.90;;;14.80;99.90;;;;;;10388242;28;20347;-75
2022/10/26 08:36:53;;;;;;;7.10;3.07;;;16.20;99.90;;;;;;10385505;28;20320;-75
2022/10/26 08:42:02;;;;;;;15.63;3.20;;;19.00;99.90;;;;;;10387563;28;20263;-75
2022/10/26 08:47:29;;;;;;;6.60;2.50;;;20.50;99.90;;;;;;10387874;28;20243;-75
2022/10/26 08:53:08;;;;;;;7.30;2.07;;;21.40;99.90;;;;;;10383410;28;20222;-76
2022/10/26 08:58:30;;;;;;;7.60;2.30;;;23.30;99.90;;;;;;10392105;28;20228;-75
2022/10/26 09:03:31;;;;;;;5.33;2.60;;;24.20;99.90;;;;;;10390808;28;20224;-75
2022/10/26 09:09:00;;;;;;;6.90;2.17;;;26.80;99.90;;;;;;10382866;28;20228;-75
2022/10/26 09:14:14;;;;;;;3.67;2.20;;;25.40;99.90;;;;;;10393037;28;20213;-76
2022/10/26 09:19:34;;;;;;;6.80;2.77;;;23.70;99.90;;;;;;10394338;28;20228;-76
2022/10/26 09:24:47;;;;;;;5.63;2.43;;;25.40;99.90;;;;;;10390834;28;20315;-75
2022/10/26 09:29:52;;;;;;;8.83;2.13;;;25.20;99.50;;;;;;10392279;28;20239;-76
2022/10/26 09:34:58;;;;;;;4.83;2.30;;;23.20;99.90;;;;;;10390403;28;20777;-75
2022/10/26 09:40:33;;;;;;;5.37;2.70;;;21.90;99.90;;;;;;10388885;28;20227;-74
2022/10/26 09:45:44;;;;;;;5.13;2.47;;;21.20;99.90;;;;;;10400410;28;20240;-75
2022/10/26 09:50:50;;;;;;;6.17;2.60;;;20.50;99.90;;;;;;10430099;28;20225;-75
2022/10/26 09:56:04;;;;;;;6.80;2.10;;;20.40;99.90;;;;;;10394817;28;20219;-75
2022/10/26 10:01:05;;;;;;;9.67;2.60;;;21.50;99.90;;;;;;10394513;28;20227;-77
2022/10/26 10:06:20;;;;;;;6.23;2.30;;;26.00;99.90;;;;;;10391938;28;20235;-75
2022/10/26 10:11:21;;;;;;;10.20;2.80;;;28.70;93.40;;;;;;10394777;28;20679;-74
2022/10/26 10:16:23;;;;;;;7.17;2.50;;;30.70;80.60;;;;;;10397774;28;20228;-76
2022/10/26 10:21:43;;;;;;;7.00;2.33;;;29.10;80.80;;;;;;10389334;28;20222;-74
2022/10/26 10:27:18;;;;;;;9.10;2.53;;;30.50;79.80;;;;;;10389550;28;20223;-76
2022/10/26 10:32:30;;;;;;;6.77;2.73;;;33.30;62.70;;;;;;10414296;28;20216;-75
2022/10/26 10:37:41;;;;;;;3.90;2.40;;;32.40;61.00;;;;;;10417081;28;20231;-75
2022/10/26 10:42:43;;;;;;;6.87;2.60;;;30.30;65.60;;;;;;10390294;28;20230;-75
2022/10/26 10:48:02;;;;;;;6.13;2.20;;;29.00;72.70;;;;;;10387991;28;20239;-74
2022/10/26 10:53:18;;;;;;;7.63;2.90;;;32.10;62.30;;;;;;10400498;28;20283;-76
2022/10/26 10:59:00;;;;;;;5.37;2.10;;;33.40;58.00;;;;;;10393068;28;20730;-74
2022/10/26 11:04:13;;;;;;;5.80;2.60;;;32.90;56.90;;;;;;10396874;28;20600;-74
2022/10/26 11:09:18;;;;;;;7.17;2.57;;;30.30;61.80;;;;;;10387573;28;20265;-75
2022/10/26 11:14:36;;;;;;;5.90;2.30;;;27.20;72.80;;;;;;10387776;28;20221;-75
2022/10/26 11:19:57;;;;;;;5.50;2.50;;;25.60;81.60;;;;;;10402600;28;20238;-76
2022/10/26 11:25:04;;;;;;;10.57;2.63;;;24.70;85.10;;;;;;10390807;28;20586;-75
2022/10/26 11:30:19;;;;;;;10.73;2.70;;;23.90;90.00;;;;;;10430925;28;20315;-74
2022/10/26 11:35:30;;;;;;;7.13;2.37;;;23.40;92.10;;;;;;10433457;28;20191;-74
2022/10/26 11:40:46;;;;;;;7.90;2.47;;;23.10;93.80;;;;;;10394579;28;20235;-75
2022/10/26 11:46:09;;;;;;;6.83;2.80;;;22.70;95.80;;;;;;10430230;28;20225;-75
2022/10/26 11:51:19;;;;;;;9.97;2.90;;;22.50;97.50;;;;;;10396411;28;20723;-74
2022/10/26 11:56:44;;;;;;;5.53;2.77;;;22.20;99.50;;;;;;10392405;28;20230;-74
2022/10/26 12:01:55;;;;;;;4.97;2.47;;;22.00;99.90;;;;;;10386026;28;20277;-75
2022/10/26 12:06:57;;;;;;;9.07;2.97;;;22.00;99.90;;;;;;10386458;28;20238;-76
2022/10/26 12:12:39;;;;;;;11.80;3.03;;;22.10;99.90;;;;;;10393163;28;20642;-74
2022/10/26 12:18:05;;;;;;;6.77;3.00;;;22.10;99.90;;;;;;10387418;28;20250;-74
2022/10/26 12:23:09;;;;;;;7.87;2.67;;;22.00;99.90;;;;;;10395920;28;20305;-74
2022/10/26 12:28:33;;;;;;;9.73;3.20;;;21.90;99.90;;;;;;10420504;28;20668;-75
2022/10/26 12:33:49;;;;;;;10.67;2.43;;;21.80;99.90;;;;;;10420335;28;20231;-75
2022/10/26 12:38:53;;;;;;;10.20;2.17;;;21.70;99.90;;;;;;10398000;28;20322;-76
2022/10/26 12:43:58;;;;;;;6.07;2.57;;;21.80;99.90;;;;;;10416966;28;20298;-75
2022/10/26 12:48:58;;;;;;;4.43;1.97;;;22.00;99.90;;;;;;10399915;28;20229;-77
2022/10/26 12:54:11;;;;;;;5.83;2.30;;;22.10;99.90;;;;;;10425618;28;20219;-76
2022/10/26 12:59:43;;;;;;;4.83;2.10;;;22.20;99.90;;;;;;10402546;28;20277;-74
2022/10/26 13:04:59;;;;;;;8.40;3.07;;;22.20;99.90;;;;;;10424346;28;20243;-74
2022/10/26 13:10:03;;;;;;;7.27;2.73;;;22.10;99.90;;;;;;10432606;28;20694;-75
2022/10/26 13:15:18;;;;;;;13.37;3.00;;;22.10;99.90;;;;;;10385869;28;20655;-75
2022/10/26 13:20:19;;;;;;;5.77;2.40;;;21.90;99.90;;;;;;10386498;28;20233;-77
2022/10/26 13:25:28;;;;;;;8.03;3.83;;;21.70;99.90;;;;;;10388950;28;20190;-75
2022/10/26 13:30:42;;;;;;;10.90;2.87;;;21.50;99.90;;;;;;10389065;28;20307;-74
2022/10/26 13:35:44;;;;;;;6.50;2.60;;;21.40;99.90;;;;;;10386407;28;20226;-75
2022/10/26 13:40:45;;;;;;;6.03;2.40;;;21.40;99.90;;;;;;10389490;28;20253;-75
2022/10/26 13:46:00;;;;;;;8.33;3.30;;;21.60;99.90;;;;;;10366905;28;20227;-75
2022/10/26 13:51:09;;;;;;;7.93;2.40;;;21.80;99.90;;;;;;10384586;28;20706;-74
2022/10/26 13:56:29;;;;;;;4.13;2.03;;;21.60;99.90;;;;;;10381731;28;20235;-74
2022/10/26 14:01:30;;;;;;;3.83;1.90;;;21.20;99.90;;;;;;10390849;28;20313;-75
2022/10/26 14:06:37;;;;;;;6.87;2.00;;;20.90;99.90;;;;;;10380649;28;20230;-74
2022/10/26 14:11:52;;;;;;;6.60;2.50;;;20.70;99.90;;;;;;10381706;28;20229;-75
2022/10/26 14:16:53;;;;;;;6.70;2.10;;;20.60;99.90;;;;;;10394800;28;20308;-75
2022/10/26 14:21:55;;;;;;;5.50;2.27;;;20.60;99.90;;;;;;10384084;28;20232;-74
2022/10/26 14:26:56;;;;;;;5.97;2.40;;;20.50;99.90;;;;;;10386602;28;20310;-74
2022/10/26 14:31:56;;;;;;;4.97;2.27;;;20.40;99.90;;;;;;10382575;28;20287;-75
2022/10/26 14:37:02;;;;;;;8.40;2.77;;;20.30;99.90;;;;;;10388657;28;20230;-75
2022/10/26 14:42:17;;;;;;;8.77;2.33;;;20.10;99.90;;;;;;10387842;28;20320;-74
2022/10/26 14:47:29;;;;;;;9.57;2.80;;;20.10;99.90;;;;;;10394495;28;20223;-75
2022/10/26 14:52:33;;;;;;;9.97;2.80;;;20.00;99.90;;;;;;10388039;28;20695;-74
2022/10/26 14:57:36;;;;;;;7.63;2.90;;;19.90;99.90;;;;;;10388152;28;20264;-74
2022/10/26 15:02:37;;;;;;;12.43;3.33;;;19.80;99.90;;;;;;10395058;28;20362;-76
2022/10/26 15:07:39;;;;;;;6.53;2.90;;;19.70;99.90;;;;;;10388193;28;20317;-75
2022/10/26 15:12:40;;;;;;;5.70;2.40;;;19.60;99.90;;;;;;10393345;28;20224;-75
2022/10/26 15:17:48;;;;;;;7.97;2.93;;;19.50;99.90;;;;;;10387306;28;20232;-75
2022/10/26 15:23:01;;;;;;;15.10;3.17;;;19.30;99.90;;;;;;10394067;28;20216;-75
2022/10/26 15:28:10;;;;;;;7.60;2.70;;;19.30;99.90;;;;;;10390306;28;20216;-75
2022/10/26 15:33:20;;;;;;;11.90;2.80;;;19.10;99.90;;;;;;10392775;28;20290;-74
2022/10/26 15:38:21;;;;;;;10.70;3.10;;;19.00;99.90;;;;;;10419055;28;20601;-75
2022/10/26 15:43:21;;;;;;;5.73;2.80;;;18.90;99.90;;;;;;10401188;28;20222;-75
2022/10/26 15:48:29;;;;;;;5.67;2.70;;;18.80;99.90;;;;;;10392458;28;20213;-75
2022/10/26 15:53:30;;;;;;;8.47;3.03;;;18.70;99.90;;;;;;10392312;28;20221;-75
2022/10/26 15:58:31;;;;;;;5.47;2.37;;;18.50;99.90;;;;;;10386552;28;20239;-75
2022/10/26 16:03:31;;;;;;;11.27;2.90;;;18.40;99.90;;;;;;10392043;28;20639;-75
2022/10/26 16:08:33;;;;;;;11.07;3.37;;;18.30;99.90;;;;;;10393841;28;20235;-75
2022/10/26 16:13:34;;;;;;;8.63;3.33;;;18.10;99.90;;;;;;10384327;28;20236;-74
2022/10/26 16:18:37;;;;;;;6.90;3.33;;;18.00;99.90;;;;;;10419612;28;20224;-75
2022/10/26 16:23:39;;;;;;;9.03;3.30;;;17.90;99.90;;;;;;10431585;28;20217;-75
2022/10/26 16:28:39;;;;;;;6.10;3.13;;;17.70;99.90;;;;;;10426592;28;20280;-75
2022/10/26 16:33:40;;;;;;;7.87;3.10;;;17.60;99.90;;;;;;10407118;28;20212;-73
2022/10/26 16:38:41;;;;;;;12.77;4.60;;;17.40;99.90;;;;;;10413349;28;20233;-76
2022/10/26 16:43:44;;;;;;;7.00;3.70;;;17.30;99.90;;;;;;10402961;28;20635;-74
2022/10/26 16:48:47;;;;;;;6.03;3.20;;;17.30;99.90;;;;;;10392285;28;20309;-74
2022/10/26 16:53:50;;;;;;;9.93;4.20;;;17.20;99.90;;;;;;10399477;28;20220;-74
2022/10/26 16:58:51;;;;;;;11.20;3.60;;;17.00;99.90;;;;;;10399973;28;20763;-74
2022/10/26 17:03:52;;;;;;;7.37;3.77;;;16.90;99.90;;;;;;10399959;28;20315;-75
2022/10/26 17:08:52;;;;;;;8.00;3.60;;;16.80;99.90;;;;;;10401720;28;20255;-75
2022/10/26 17:13:56;;;;;;;9.17;4.07;;;16.80;99.90;;;;;;10389773;28;20224;-76
2022/10/26 17:18:57;;;;;;;8.03;3.90;;;16.70;99.90;;;;;;10399901;28;20236;-74
2022/10/26 17:23:58;;;;;;;4.30;3.50;;;16.60;99.90;;;;;;10433677;28;20223;-74
2022/10/26 17:28:58;;;;;;;10.03;3.40;;;16.70;99.90;;;;;;10438450;28;20225;-76
2022/10/26 17:33:59;;;;;;;9.77;3.60;;;16.60;99.90;;;;;;10445812;28;20231;-76
2022/10/26 17:39:03;;;;;;;5.73;3.00;;;16.60;99.90;;;;;;10397170;28;21002;-75
2022/10/26 17:44:04;;;;;;;5.90;3.43;;;16.50;99.90;;;;;;10388069;28;20220;-76
2022/10/26 17:49:05;;;;;;;7.63;3.50;;;16.50;99.90;;;;;;10389735;28;20216;-77
2022/10/26 17:54:05;;;;;;;8.40;3.83;;;16.50;99.90;;;;;;10389026;28;20289;-76
2022/10/26 17:59:10;;;;;;;10.77;4.07;;;16.50;99.90;;;;;;10391734;28;20240;-75
2022/10/26 18:04:11;;;;;;;8.67;3.53;;;16.50;99.90;;;;;;10392740;28;20221;-75
2022/10/26 18:09:11;;;;;;;6.93;3.73;;;16.50;99.90;;;;;;10397147;28;20603;-75
2022/10/26 18:14:15;;;;;;;9.00;3.17;;;16.50;99.90;;;;;;10401708;28;20221;-75
2022/10/26 18:19:15;;;;;;;9.23;3.83;;;16.50;99.90;;;;;;10401343;28;20232;-75
2022/10/26 18:24:16;;;;;;;8.77;4.10;;;16.40;99.90;;;;;;10408778;28;20229;-75
2022/10/26 18:29:17;;;;;;;8.67;3.60;;;16.30;99.90;;;;;;10398765;28;20646;-79
2022/10/26 18:34:17;;;;;;;12.00;4.40;;;16.30;99.90;;;;;;10401490;28;20227;-78
2022/10/26 18:39:18;;;;;;;8.30;3.43;;;16.30;99.90;;;;;;10444364;28;20699;-78
2022/10/26 18:44:18;;;;;;;9.43;4.10;;;16.20;99.90;;;;;;10415898;28;20216;-77
2022/10/26 18:49:20;;;;;;;7.93;3.70;;;16.10;99.90;;;;;;10405626;28;20308;-79
2022/10/26 18:54:21;;;;;;;8.07;3.77;;;16.00;99.90;;;;;;10441292;28;20224;-79
2022/10/26 18:59:21;;;;;;;11.57;4.07;;;16.00;99.90;;;;;;10442232;28;20278;-79
2022/10/26 19:04:22;;;;;;;8.80;4.37;;;16.00;99.90;;;;;;10443739;28;20263;-79
2022/10/26 19:09:24;;;;;;;11.50;5.60;;;16.00;99.90;;;;;;10442558;28;20594;-79
2022/10/26 19:14:24;;;;;;;9.50;4.47;;;15.90;99.90;;;;;;10458903;28;20245;-77
2022/10/26 19:19:25;;;;;;;9.07;3.93;;;15.70;99.90;;;;;;10443579;28;20277;-78
2022/10/26 19:24:26;;;;;;;10.60;3.67;;;15.70;99.90;;;;;;10447818;28;20745;-77
2022/10/26 19:29:26;;;;;;;6.90;3.63;;;15.60;99.90;;;;;;10454616;28;20234;-78
2022/10/26 19:34:27;;;;;;;6.63;4.07;;;15.50;99.90;;;;;;10439434;28;20231;-79
2022/10/26 19:39:33;;;;;;;8.13;4.53;;;15.40;99.90;;;;;;10444506;28;20256;-79
2022/10/26 19:44:34;;;;;;;10.03;4.07;;;15.40;99.90;;;;;;10442641;28;20227;-78
2022/10/26 19:49:35;;;;;;;6.83;4.10;;;15.40;99.90;;;;;;10442278;28;20220;-78
2022/10/26 19:54:35;;;;;;;9.50;3.80;;;15.40;99.90;;;;;;10448863;28;20690;-78
2022/10/26 19:59:36;;;;;;;8.97;4.10;;;15.40;99.90;;;;;;10409447;28;20234;-78
2022/10/26 20:04:39;;;;;;;8.53;4.10;;;15.40;99.90;;;;;;10407555;28;20220;-77
2022/10/26 20:09:39;;;;;;;12.13;4.00;;;15.50;99.90;;;;;;10407025;28;20228;-77
2022/10/26 20:14:40;;;;;;;8.63;4.10;;;15.50;99.90;;;;;;10407439;28;20638;-76
2022/10/26 20:19:40;;;;;;;6.67;3.63;;;15.50;99.90;;;;;;10401490;28;20231;-77
2022/10/26 20:24:42;;;;;;;6.57;3.87;;;15.50;99.90;;;;;;10405118;28;20633;-80
2022/10/26 20:29:42;;;;;;;5.90;3.53;;;15.40;99.90;;;;;;10401470;28;20227;-76
2022/10/26 20:34:43;;;;;;;10.90;4.00;;;15.10;99.90;;;;;;10391681;28;20714;-77
2022/10/26 20:39:44;;;;;;;7.80;3.70;;;15.00;99.90;;;;;;10396543;28;20327;-74
2022/10/26 20:44:45;;;;;;;7.63;4.03;;;14.90;99.90;;;;;;10385149;28;20622;-76
2022/10/26 20:49:46;;;;;;;8.77;3.90;;;14.80;99.90;;;;;;10389749;28;20256;-75
2022/10/26 20:54:51;;;;;;;6.40;3.67;;;14.70;99.90;;;;;;10390698;28;20252;-77
2022/10/26 20:59:56;;;;;;;9.33;3.73;;;14.70;99.90;;;;;;10396506;28;20235;-75
2022/10/26 21:04:57;;;;;;;8.10;3.30;;;14.60;99.90;;;;;;10395052;28;20221;-74
2022/10/26 21:09:57;;;;;;;8.37;4.50;;;14.60;99.90;;;;;;10393388;28;20834;-74
2022/10/26 21:14:58;;;;;;;9.17;3.70;;;14.50;99.90;;;;;;10386761;28;20310;-74
2022/10/26 21:19:58;;;;;;;7.30;3.60;;;14.40;99.90;;;;;;10396137;28;20235;-73
2022/10/26 21:24:59;;;;;;;6.77;4.43;;;14.20;99.90;;;;;;10393480;28;20217;-74
2022/10/26 21:30:00;;;;;;;6.50;3.60;;;14.20;99.90;;;;;;10393830;28;20212;-74
2022/10/26 21:35:00;;;;;;;7.43;3.73;;;14.10;99.90;;;;;;10423673;28;20585;-74
2022/10/26 21:40:04;;;;;;;7.03;3.37;;;14.00;99.90;;;;;;10389061;28;20272;-74
2022/10/26 21:45:06;;;;;;;5.70;3.40;;;13.80;99.90;;;;;;10427252;28;20227;-74
2022/10/26 21:50:07;;;;;;;6.60;3.60;;;13.70;99.90;;;;;;10387274;28;20191;-75
2022/10/26 21:55:08;;;;;;;7.87;3.40;;;13.60;99.90;;;;;;10384997;28;20219;-75
2022/10/26 22:00:09;;;;;;;7.63;3.30;;;13.50;99.90;;;;;;10392893;28;20220;-74
2022/10/26 22:05:09;;;;;;;7.63;3.73;;;13.40;99.90;;;;;;10388542;28;20185;-73
2022/10/26 22:10:10;;;;;;;6.17;3.30;;;13.30;99.90;;;;;;10390272;28;20207;-72
2022/10/26 22:15:10;;;;;;;5.00;3.27;;;13.30;99.90;;;;;;10389242;28;20802;-73
2022/10/26 22:20:11;;;;;;;5.07;3.60;;;13.20;99.90;;;;;;10395593;28;20238;-74
2022/10/26 22:25:13;;;;;;;11.70;4.73;;;13.20;99.90;;;;;;10393790;28;20189;-72
2022/10/26 22:30:13;;;;;;;5.63;3.83;;;13.10;99.90;;;;;;10386861;28;20216;-72
2022/10/26 22:35:14;;;;;;;6.50;3.63;;;13.00;99.90;;;;;;10390275;28;20228;-73
2022/10/26 22:40:15;;;;;;;7.57;3.97;;;13.00;99.90;;;;;;10401208;28;20225;-74
2022/10/26 22:45:15;;;;;;;10.00;4.13;;;12.90;99.90;;;;;;10383521;28;20192;-75
2022/10/26 22:50:16;;;;;;;8.00;3.97;;;12.90;99.90;;;;;;10389096;28;20280;-74
2022/10/26 22:55:16;;;;;;;6.97;3.30;;;12.90;99.90;;;;;;10384822;28;20577;-74
2022/10/26 23:00:17;;;;;;;6.60;4.23;;;12.80;99.90;;;;;;10401440;28;20268;-74
2022/10/26 23:05:18;;;;;;;6.77;4.70;;;12.80;99.90;;;;;;10400196;28;20176;-73
2022/10/26 23:10:18;;;;;;;8.07;4.30;;;12.70;99.90;;;;;;10441378;28;20257;-73
2022/10/26 23:15:19;;;;;;;7.03;4.20;;;12.70;99.90;;;;;;10389244;28;20243;-75
2022/10/26 23:20:19;;;;;;;8.90;4.63;;;12.70;99.90;;;;;;10401730;28;20205;-74
2022/10/26 23:25:20;;;;;;;6.73;4.50;;;12.70;99.90;;;;;;10393405;28;20213;-74
2022/10/26 23:30:21;;;;;;;8.70;4.20;;;12.60;99.90;;;;;;10395764;28;20707;-74
2022/10/26 23:35:22;;;;;;;5.97;3.80;;;12.50;99.90;;;;;;10399941;28;20220;-74
2022/10/26 23:40:22;;;;;;;6.27;4.23;;;12.50;99.90;;;;;;10442127;28;20219;-76
2022/10/26 23:45:23;;;;;;;6.40;4.80;;;12.40;99.90;;;;;;10387455;28;20729;-75
2022/10/26 23:50:23;;;;;;;6.90;3.87;;;12.30;99.90;;;;;;10394666;28;20277;-73
2022/10/26 23:55:24;;;;;;;8.33;4.70;;;12.30;99.90;;;;;;10377959;28;20719;-75
